createdAt,value
2019-01-21T00:01:47.882Z,40.05
2019-01-21T00:04:21.674Z,39.60
2019-01-21T00:06:56.072Z,39.24
2019-01-21T00:09:32.220Z,38.96
2019-01-21T00:12:06.176Z,38.73
2019-01-21T00:14:39.841Z,38.63
2019-01-21T00:17:13.850Z,38.67
2019-01-21T00:19:49.238Z,38.56
2019-01-21T00:22:23.138Z,38.13
2019-01-21T00:24:57.846Z,38.03
2019-01-21T00:27:34.696Z,38.15
2019-01-21T00:30:11.738Z,38.21
2019-01-21T00:32:45.814Z,38.11
2019-01-21T00:35:19.670Z,37.88
2019-01-21T00:37:53.701Z,38.20
2019-01-21T00:40:31.564Z,38.17
2019-01-21T00:43:05.769Z,37.75
2019-01-21T00:45:39.560Z,37.70
2019-01-21T00:48:13.366Z,37.88
2019-01-21T00:50:47.973Z,37.87
2019-01-21T00:53:21.921Z,37.46
2019-01-21T00:55:55.748Z,37.00
2019-01-21T00:58:29.990Z,36.33
2019-01-21T01:01:05.236Z,36.32
2019-01-21T01:03:43.289Z,36.50
2019-01-21T01:06:16.992Z,36.36
2019-01-21T01:08:52.703Z,36.31
2019-01-21T01:11:27.951Z,36.21
2019-01-21T01:14:02.461Z,35.49
2019-01-21T01:16:38.547Z,36.04
2019-01-21T01:19:12.189Z,35.74
2019-01-21T01:21:48.096Z,35.75
2019-01-21T01:24:23.422Z,35.81
2019-01-21T01:26:57.535Z,36.17
2019-01-21T01:29:32.149Z,36.13
2019-01-21T01:32:06.225Z,35.74
2019-01-21T01:34:40.379Z,35.66
2019-01-21T01:37:15.481Z,35.52
2019-01-21T01:39:53.376Z,35.55
2019-01-21T01:42:28.710Z,35.61
2019-01-21T01:45:07.888Z,35.66
2019-01-21T01:47:44.911Z,36.01
2019-01-21T01:50:17.526Z,36.53
2019-01-21T01:52:52.128Z,36.17
2019-01-21T01:55:27.509Z,35.77
2019-01-21T01:58:03.312Z,35.28
2019-01-21T02:00:37.151Z,35.28
2019-01-21T02:03:10.816Z,35.28
2019-01-21T02:05:44.286Z,35.25
2019-01-21T02:08:19.357Z,34.77
2019-01-21T02:10:53.266Z,34.58
2019-01-21T02:13:30.375Z,34.51
2019-01-21T02:16:02.417Z,35.00
2019-01-21T02:18:36.858Z,33.74
2019-01-21T02:21:15.260Z,33.19
2019-01-21T02:23:51.466Z,33.14
2019-01-21T02:26:27.857Z,32.84
2019-01-21T02:29:06.885Z,33.50
2019-01-21T02:32:21.573Z,32.46
2019-01-21T02:35:10.052Z,33.27
2019-01-21T02:38:15.634Z,33.63
2019-01-21T02:40:57.929Z,33.22
2019-01-21T02:44:20.580Z,33.33
2019-01-21T02:47:18.960Z,32.40
2019-01-21T02:50:28.761Z,31.87
2019-01-21T02:53:18.843Z,30.33
2019-01-21T02:56:13.507Z,30.88
2019-01-21T02:59:04.352Z,30.98
2019-01-21T03:02:30.385Z,31.16
2019-01-21T03:05:26.889Z,31.78
2019-01-21T03:08:20.972Z,31.78
2019-01-21T03:11:24.310Z,31.59
2019-01-21T03:14:21.817Z,31.52
2019-01-21T03:17:00.790Z,31.72
2019-01-21T03:19:45.675Z,31.50
2019-01-21T03:22:51.877Z,31.65
2019-01-21T03:25:51.843Z,32.19
2019-01-21T03:28:39.299Z,33.26
2019-01-21T03:31:38.776Z,33.19
2019-01-21T03:34:19.237Z,32.27
2019-01-21T03:37:03.902Z,31.87
2019-01-21T03:40:10.131Z,32.90
2019-01-21T03:42:52.234Z,32.17
2019-01-21T03:45:43.222Z,31.09
2019-01-21T03:48:20.123Z,31.26
2019-01-21T03:51:28.821Z,31.70
2019-01-21T03:54:04.873Z,32.09
2019-01-21T03:56:42.383Z,32.63
2019-01-21T03:59:27.683Z,33.05
2019-01-21T04:02:24.898Z,33.53
2019-01-21T04:05:26.819Z,33.27
2019-01-21T04:08:03.276Z,33.95
2019-01-21T04:10:54.680Z,33.75
2019-01-21T04:13:36.900Z,33.53
2019-01-21T04:16:33.837Z,32.76
2019-01-21T04:19:28.233Z,32.44
2019-01-21T04:22:23.553Z,32.65
2019-01-21T04:25:02.689Z,32.55
2019-01-21T04:28:01.283Z,31.93
2019-01-21T04:30:52.779Z,32.25
2019-01-21T04:33:40.742Z,31.28
2019-01-21T04:36:32.136Z,32.71
2019-01-21T04:39:17.182Z,32.83
2019-01-21T04:42:23.393Z,33.09
2019-01-21T04:45:08.554Z,33.42
2019-01-21T04:48:10.376Z,34.06
2019-01-21T04:51:07.175Z,34.49
2019-01-21T04:54:13.139Z,34.33
2019-01-21T04:57:09.123Z,34.44
2019-01-21T04:59:57.337Z,34.62
2019-01-21T05:02:38.982Z,35.03
2019-01-21T05:05:28.625Z,35.01
2019-01-21T05:08:36.733Z,35.04
2019-01-21T05:11:50.406Z,34.55
2019-01-21T05:14:56.103Z,34.41
2019-01-21T05:18:17.755Z,34.46
2019-01-21T05:21:02.436Z,34.45
2019-01-21T05:26:51.248Z,34.64
2019-01-21T05:29:47.120Z,34.48
2019-01-21T05:32:50.542Z,34.82
2019-01-21T05:39:09.094Z,35.20
2019-01-21T05:42:06.804Z,35.81
2019-01-21T05:45:02.250Z,35.53
2019-01-21T05:48:14.937Z,35.99
2019-01-21T05:51:22.029Z,36.31
2019-01-21T05:54:12.864Z,36.50
2019-01-21T05:57:26.410Z,36.36
2019-01-21T06:00:14.909Z,35.93
2019-01-21T06:03:10.522Z,36.10
2019-01-21T06:06:00.614Z,36.18
2019-01-21T06:08:59.528Z,36.08
2019-01-21T06:12:02.171Z,36.17
2019-01-21T06:14:50.602Z,36.23
2019-01-21T06:17:42.030Z,36.12
2019-01-21T06:20:57.969Z,35.83
2019-01-21T06:24:14.414Z,35.22
2019-01-21T06:27:14.474Z,35.21
2019-01-21T06:30:03.393Z,35.42
2019-01-21T06:33:19.633Z,36.53
2019-01-21T06:36:16.215Z,36.02
2019-01-21T06:39:03.620Z,36.21
2019-01-21T06:41:56.380Z,36.63
2019-01-21T06:44:41.623Z,36.65
2019-01-21T06:48:04.101Z,36.03
2019-01-21T06:51:01.201Z,36.22
2019-01-21T06:53:59.345Z,37.26
2019-01-21T06:56:47.742Z,39.07
2019-01-21T06:59:50.504Z,40.08
2019-01-21T07:02:43.418Z,40.21
2019-01-21T07:05:52.763Z,40.03
2019-01-21T07:08:37.441Z,39.50
2019-01-21T07:11:49.687Z,38.18
2019-01-21T07:14:49.146Z,38.11
2019-01-21T07:17:46.731Z,36.98
2019-01-21T07:20:48.367Z,37.09
2019-01-21T07:23:48.485Z,36.46
2019-01-21T07:26:41.122Z,36.74
2019-01-21T07:29:36.989Z,36.81
2019-01-21T07:32:17.848Z,36.61
2019-01-21T07:34:57.264Z,37.51
2019-01-21T07:37:39.419Z,38.45
2019-01-21T07:40:34.468Z,37.83
2019-01-21T07:43:27.780Z,37.66
2019-01-21T07:46:23.359Z,38.06
2019-01-21T07:49:05.905Z,38.33
2019-01-21T07:52:10.423Z,38.74
2019-01-21T07:54:51.102Z,38.95
2019-01-21T07:57:57.231Z,38.58
2019-01-21T08:00:39.573Z,38.54
2019-01-21T08:03:58.937Z,38.47
2019-01-21T08:06:45.312Z,38.85
2019-01-21T08:09:38.381Z,38.95
2019-01-21T08:12:30.123Z,39.15
2019-01-21T08:15:12.603Z,39.58
2019-01-21T08:18:20.187Z,39.09
2019-01-21T08:21:28.365Z,39.44
2019-01-21T08:24:24.304Z,39.35
2019-01-21T08:27:35.020Z,39.32
2019-01-21T08:30:25.084Z,40.50
2019-01-21T08:33:06.117Z,41.56
2019-01-21T08:35:42.688Z,41.49
2019-01-21T08:38:36.351Z,41.84
2019-01-21T08:41:24.678Z,42.11
2019-01-21T08:44:17.666Z,42.57
2019-01-21T08:47:06.339Z,42.71
2019-01-21T08:49:46.588Z,42.80
2019-01-21T08:52:26.034Z,42.74
2019-01-21T08:55:29.427Z,42.71
2019-01-21T08:58:35.857Z,42.95
2019-01-21T09:01:24.168Z,42.83
2019-01-21T09:04:23.000Z,42.88
2019-01-21T09:07:00.800Z,43.48
2019-01-21T09:09:46.600Z,43.44
2019-01-21T09:12:47.395Z,43.84
2019-01-21T09:15:39.394Z,43.64
2019-01-21T09:18:21.968Z,44.06
2019-01-21T09:21:14.546Z,44.17
2019-01-21T09:24:10.407Z,44.29
2019-01-21T09:27:05.846Z,43.92
2019-01-21T09:30:08.562Z,44.16
2019-01-21T09:33:26.647Z,44.69
2019-01-21T09:36:16.780Z,44.79
2019-01-21T09:39:10.051Z,44.81
2019-01-21T09:42:14.786Z,45.04
2019-01-21T09:44:57.898Z,45.21
2019-01-21T09:47:28.787Z,45.39
2019-01-21T09:50:11.517Z,45.30
2019-01-21T09:52:51.147Z,45.40
2019-01-21T09:55:26.133Z,45.28
2019-01-21T09:58:12.125Z,45.75
2019-01-21T10:00:47.223Z,46.00
2019-01-21T10:03:29.054Z,46.61
2019-01-21T10:06:06.136Z,46.48
2019-01-21T10:08:57.155Z,46.58
2019-01-21T10:11:50.316Z,46.60
2019-01-21T10:14:43.624Z,47.03
2019-01-21T10:17:35.670Z,47.06
2019-01-21T10:20:28.482Z,47.29
2019-01-21T10:23:45.044Z,46.99
2019-01-21T10:26:38.777Z,47.37
2019-01-21T10:29:29.171Z,47.85
2019-01-21T10:32:13.599Z,47.75
2019-01-21T10:35:12.628Z,47.63
2019-01-21T10:38:25.927Z,48.02
2019-01-21T10:41:34.590Z,47.87
2019-01-21T10:44:13.928Z,48.34
2019-01-21T10:47:03.887Z,48.71
2019-01-21T10:50:02.581Z,49.09
2019-01-21T10:53:02.247Z,48.69
2019-01-21T10:55:55.829Z,48.72
2019-01-21T10:58:46.719Z,48.96
2019-01-21T11:02:00.572Z,49.62
2019-01-21T11:04:48.050Z,49.90
2019-01-21T11:07:45.378Z,50.00
2019-01-21T11:10:25.603Z,49.80
2019-01-21T11:13:13.789Z,50.25
2019-01-21T11:16:03.212Z,50.23
2019-01-21T11:19:09.110Z,50.64
2019-01-21T11:21:52.524Z,50.58
2019-01-21T11:24:55.330Z,50.12
2019-01-21T11:27:35.894Z,51.46
2019-01-21T11:30:35.388Z,51.45
2019-01-21T11:33:52.149Z,51.13
2019-01-21T11:36:52.437Z,50.81
2019-01-21T11:39:47.705Z,50.86
2019-01-21T11:42:27.785Z,51.07
2019-01-21T11:45:37.855Z,51.33
2019-01-21T11:48:26.605Z,51.35
2019-01-21T11:51:41.021Z,51.13
2019-01-21T11:54:30.223Z,51.50
2019-01-21T11:57:25.074Z,52.40
2019-01-21T12:00:22.364Z,51.87
2019-01-21T12:03:23.623Z,52.12
2019-01-21T12:06:02.188Z,52.07
2019-01-21T12:09:10.263Z,53.00
2019-01-21T12:12:08.933Z,52.72
2019-01-21T12:15:27.967Z,52.49
2019-01-21T12:18:31.935Z,52.62
2019-01-21T12:21:20.830Z,53.23
2019-01-21T12:24:04.569Z,52.51
2019-01-21T12:26:52.196Z,52.52
2019-01-21T12:29:48.699Z,53.41
2019-01-21T12:32:44.564Z,53.58
2019-01-21T12:35:38.865Z,53.70
2019-01-21T12:38:51.374Z,53.72
2019-01-21T12:42:03.089Z,53.35
2019-01-21T12:45:05.587Z,53.37
2019-01-21T12:48:09.861Z,54.49
2019-01-21T12:51:33.687Z,54.43
2019-01-21T12:54:38.506Z,53.58
2019-01-21T12:57:45.825Z,53.41
2019-01-21T13:00:31.903Z,54.13
2019-01-21T13:03:28.964Z,54.54
2019-01-21T13:06:22.357Z,54.84
2019-01-21T13:09:18.465Z,55.19
2019-01-21T13:12:26.396Z,53.97
2019-01-21T13:15:27.063Z,54.88
2019-01-21T13:18:42.131Z,55.04
2019-01-21T13:21:38.503Z,55.39
2019-01-21T13:24:44.320Z,54.67
2019-01-21T13:27:24.418Z,55.37
2019-01-21T13:30:02.453Z,55.54
2019-01-21T13:33:13.051Z,55.95
2019-01-21T13:35:55.671Z,56.13
2019-01-21T13:38:55.187Z,55.67
2019-01-21T13:41:41.027Z,55.47
2019-01-21T13:44:51.216Z,55.82
2019-01-21T13:47:55.127Z,55.81
2019-01-21T13:50:42.710Z,56.31
2019-01-21T13:53:55.836Z,57.04
2019-01-21T13:56:45.777Z,56.22
2019-01-21T14:00:12.228Z,56.66
2019-01-21T14:02:56.949Z,56.24
2019-01-21T14:05:58.706Z,55.87
2019-01-21T14:09:01.323Z,55.95
2019-01-21T14:11:57.326Z,56.07
2019-01-21T14:14:43.236Z,56.33
2019-01-21T14:17:40.449Z,56.34
2019-01-21T14:20:20.266Z,57.18
2019-01-21T14:23:25.467Z,57.51
2019-01-21T14:26:17.620Z,58.22
2019-01-21T14:29:09.513Z,57.65
2019-01-21T14:32:04.792Z,57.32
2019-01-21T14:34:46.950Z,57.04
2019-01-21T14:37:40.329Z,57.42
2019-01-21T14:40:25.399Z,57.14
2019-01-21T14:43:43.824Z,57.84
2019-01-21T14:46:30.611Z,58.06
2019-01-21T14:49:13.927Z,58.10
2019-01-21T14:51:56.978Z,57.54
2019-01-21T14:54:38.752Z,58.79
2019-01-21T14:57:29.884Z,58.79
2019-01-21T15:00:25.031Z,58.84
2019-01-21T15:03:32.604Z,58.95
2019-01-21T15:06:17.622Z,59.04
2019-01-21T15:09:08.874Z,57.87
2019-01-21T15:12:30.185Z,57.93
2019-01-21T15:15:28.850Z,57.98
2019-01-21T15:18:14.161Z,58.33
2019-01-21T15:21:20.367Z,58.71
2019-01-21T15:24:21.569Z,59.14
2019-01-21T15:27:19.312Z,59.47
2019-01-21T15:30:09.418Z,59.41
2019-01-21T15:33:18.529Z,59.83
2019-01-21T15:35:57.422Z,59.55
2019-01-21T15:38:36.628Z,58.65
2019-01-21T15:41:54.711Z,58.53
2019-01-21T15:44:47.370Z,58.37
2019-01-21T15:47:26.722Z,58.61
2019-01-21T15:50:09.104Z,58.18
2019-01-21T15:53:11.359Z,57.31
2019-01-21T15:55:59.632Z,57.07
2019-01-21T15:58:47.671Z,56.62
2019-01-21T16:01:50.392Z,56.43
2019-01-21T16:04:32.820Z,56.24
2019-01-21T16:07:11.448Z,56.00
2019-01-21T16:10:00.253Z,56.58
2019-01-21T16:13:02.968Z,57.33
2019-01-21T16:15:53.632Z,57.33
2019-01-21T16:18:54.164Z,56.79
2019-01-21T16:21:55.010Z,56.80
2019-01-21T16:24:48.980Z,56.80
2019-01-21T16:27:37.256Z,57.03
2019-01-21T16:30:32.664Z,56.88
2019-01-21T16:33:45.565Z,57.28
2019-01-21T16:36:41.379Z,56.83
2019-01-21T16:39:23.413Z,56.99
2019-01-21T16:42:15.726Z,57.26
2019-01-21T16:44:54.547Z,57.55
2019-01-21T16:47:31.877Z,57.70
2019-01-21T16:50:06.122Z,58.06
2019-01-21T16:52:40.955Z,57.96
2019-01-21T16:55:14.907Z,58.02
2019-01-21T16:57:48.793Z,57.40
2019-01-21T17:00:23.536Z,57.19
2019-01-21T17:02:58.090Z,57.41
2019-01-21T17:05:31.887Z,57.10
2019-01-21T17:08:05.707Z,57.19
2019-01-21T17:10:40.200Z,56.73
2019-01-21T17:13:14.125Z,56.82
2019-01-21T17:15:47.953Z,56.68
2019-01-21T17:18:21.682Z,56.68
2019-01-21T17:20:56.343Z,56.48
2019-01-21T17:23:30.334Z,56.77
2019-01-21T17:26:07.528Z,56.44
2019-01-21T17:28:41.525Z,56.56
2019-01-21T17:31:17.169Z,57.10
2019-01-21T17:33:51.109Z,56.89
2019-01-21T17:36:28.078Z,56.89
2019-01-21T17:39:02.457Z,56.51
2019-01-21T17:41:36.206Z,56.66
2019-01-21T17:44:13.012Z,56.75
2019-01-21T17:46:47.016Z,56.84
2019-01-21T17:49:21.841Z,56.64
2019-01-21T17:51:59.254Z,56.81
2019-01-21T17:54:35.280Z,56.99
2019-01-21T17:57:10.244Z,56.87
2019-01-21T17:59:44.879Z,57.02
2019-01-21T18:02:19.068Z,57.21
2019-01-21T18:04:54.748Z,57.20
2019-01-21T18:07:28.655Z,57.43
2019-01-21T18:10:02.949Z,56.99
2019-01-21T18:12:36.910Z,57.26
2019-01-21T18:15:12.914Z,57.52
2019-01-21T18:17:46.743Z,57.03
2019-01-21T18:20:22.574Z,57.11
2019-01-21T18:22:57.261Z,56.84
2019-01-21T18:25:31.026Z,57.16
2019-01-21T18:28:05.030Z,56.97
2019-01-21T18:30:39.575Z,56.70
2019-01-21T18:33:20.932Z,56.99
2019-01-21T18:36:13.834Z,57.15
2019-01-21T18:38:48.770Z,56.88
2019-01-21T18:41:22.603Z,56.69
2019-01-21T18:43:56.321Z,56.51
2019-01-21T18:46:33.003Z,56.60
2019-01-21T18:49:08.165Z,56.47
2019-01-21T18:51:46.611Z,56.51
2019-01-21T18:54:17.941Z,56.40
2019-01-21T18:56:51.838Z,56.22
2019-01-21T18:59:25.887Z,56.07
2019-01-21T19:02:00.347Z,55.92
2019-01-21T19:04:34.283Z,56.44
2019-01-21T19:07:08.373Z,56.14
2019-01-21T19:09:42.319Z,55.49
2019-01-21T19:12:16.268Z,55.02
2019-01-21T19:14:50.151Z,54.84
2019-01-21T19:17:27.651Z,55.17
2019-01-21T19:20:01.572Z,55.17
2019-01-21T19:22:36.651Z,54.81
2019-01-21T19:25:12.056Z,54.58
2019-01-21T19:27:46.243Z,55.01
2019-01-21T19:30:24.601Z,54.95
2019-01-21T19:32:58.445Z,55.42
2019-01-21T19:35:42.185Z,55.29
2019-01-21T19:38:16.472Z,54.73
2019-01-21T19:40:53.449Z,55.43
2019-01-21T19:43:28.065Z,55.33
2019-01-21T19:46:08.260Z,54.99
2019-01-21T19:48:42.799Z,54.95
2019-01-21T19:51:26.326Z,55.11
2019-01-21T19:54:07.833Z,54.87
2019-01-21T19:56:41.588Z,55.03
2019-01-21T19:59:18.080Z,55.63
2019-01-21T20:01:52.005Z,55.75
2019-01-21T20:04:29.969Z,55.44
2019-01-21T20:07:05.282Z,54.28
2019-01-21T20:09:40.069Z,54.90
2019-01-21T20:15:03.721Z,54.54
2019-01-21T20:17:38.974Z,54.32
2019-01-21T20:20:23.782Z,54.53
2019-01-21T20:22:58.264Z,54.50
2019-01-21T20:25:36.303Z,54.58
2019-01-21T20:28:11.183Z,54.43
2019-01-21T20:30:45.844Z,54.24
2019-01-21T20:33:19.649Z,54.34
2019-01-21T20:35:53.354Z,53.81
2019-01-21T20:38:27.967Z,53.73
2019-01-21T20:41:02.089Z,53.37
2019-01-21T20:43:36.815Z,53.39
2019-01-21T20:46:13.934Z,52.91
2019-01-21T20:48:48.310Z,53.01
2019-01-21T20:51:22.215Z,53.10
2019-01-21T20:53:56.543Z,53.43
2019-01-21T20:56:37.719Z,53.54
2019-01-21T20:59:11.443Z,52.86
2019-01-21T21:01:46.157Z,52.50
2019-01-21T21:04:18.666Z,51.80
2019-01-21T21:06:51.483Z,52.25
2019-01-21T21:09:24.056Z,51.71
2019-01-21T21:11:57.052Z,51.33
2019-01-21T21:14:30.034Z,51.60
2019-01-21T21:17:02.996Z,52.13
2019-01-21T21:19:35.690Z,52.05
2019-01-21T21:22:08.301Z,51.77
2019-01-21T21:24:40.854Z,52.59
2019-01-21T21:27:14.455Z,51.68
2019-01-21T21:29:47.341Z,52.09
2019-01-21T21:32:20.265Z,52.29
2019-01-21T21:34:54.068Z,52.15
2019-01-21T21:37:26.845Z,52.38
2019-01-21T21:40:00.005Z,52.23
2019-01-21T21:42:33.885Z,52.35
2019-01-21T21:45:10.215Z,51.82
2019-01-21T21:47:42.888Z,51.60
2019-01-21T21:50:22.377Z,51.88
2019-01-21T21:52:55.845Z,52.35
2019-01-21T21:55:29.668Z,52.51
2019-01-21T21:58:03.758Z,52.38
2019-01-21T22:00:36.334Z,52.53
2019-01-21T22:03:09.114Z,52.55
2019-01-21T22:05:43.023Z,52.82
2019-01-21T22:08:15.901Z,53.34
2019-01-21T22:10:48.499Z,52.60
2019-01-21T22:13:21.499Z,51.89
2019-01-21T22:15:57.035Z,51.11
2019-01-21T22:18:29.127Z,50.39
2019-01-21T22:21:02.617Z,49.77
2019-01-21T22:23:38.171Z,50.31
2019-01-21T22:26:15.405Z,49.81
2019-01-21T22:28:49.894Z,49.09
2019-01-21T22:31:23.803Z,49.23
2019-01-21T22:36:37.263Z,48.15
2019-01-21T22:39:11.340Z,47.13
2019-01-21T22:41:46.368Z,46.20
2019-01-21T22:44:20.391Z,44.94
2019-01-21T22:46:54.830Z,44.94
2019-01-21T22:49:30.356Z,44.64
2019-01-21T22:52:04.994Z,44.30
2019-01-21T22:54:39.793Z,43.76
2019-01-21T22:57:13.835Z,43.37
2019-01-21T22:59:48.011Z,43.63
2019-01-21T23:02:22.902Z,43.13
2019-01-21T23:04:56.726Z,43.35
2019-01-21T23:07:30.728Z,43.22
2019-01-21T23:10:05.654Z,42.04
2019-01-21T23:12:39.781Z,43.04
2019-01-21T23:15:14.054Z,43.02
2019-01-21T23:17:49.073Z,42.27
2019-01-21T23:20:24.159Z,42.02
2019-01-21T23:22:59.626Z,42.93
2019-01-21T23:25:33.291Z,42.30
2019-01-21T23:28:07.776Z,42.61
2019-01-21T23:30:43.136Z,42.51
2019-01-21T23:33:17.282Z,42.84
2019-01-21T23:35:52.446Z,42.65
2019-01-21T23:38:26.355Z,42.53
2019-01-21T23:41:01.101Z,42.60
2019-01-21T23:43:36.184Z,42.39
2019-01-21T23:46:10.362Z,41.35
2019-01-21T23:48:44.153Z,41.80
2019-01-21T23:51:21.623Z,40.91
2019-01-21T23:53:55.828Z,40.76
2019-01-21T23:56:34.501Z,40.53
2019-01-21T23:59:09.432Z,40.52
